sensor_id;sensor_type;location;lat;lon;timestamp;P1;durP1;ratioP1;P2;durP2;ratioP2
62903;SDS011;49000;50.698;13.322;2024-01-15T00:00:32;7.90;;;3.30;;
62903;SDS011;49000;50.698;13.322;2024-01-15T00:02:58;8.27;;;4.30;;
62903;SDS011;49000;50.698;13.322;2024-01-15T00:05:23;7.27;;;3.50;;
62903;SDS011;49000;50.698;13.322;2024-01-15T00:07:49;8.10;;;4.10;;
62903;SDS011;49000;50.698;13.322;2024-01-15T00:10:14;6.37;;;3.80;;
62903;SDS011;49000;50.698;13.322;2024-01-15T00:12:40;8.43;;;4.03;;
62903;SDS011;49000;50.698;13.322;2024-01-15T00:15:06;7.17;;;3.57;;
62903;SDS011;49000;50.698;13.322;2024-01-15T00:17:31;8.13;;;3.90;;
62903;SDS011;49000;50.698;13.322;2024-01-15T00:19:57;8.83;;;4.17;;
62903;SDS011;49000;50.698;13.322;2024-01-15T00:22:25;8.23;;;3.83;;
62903;SDS011;49000;50.698;13.322;2024-01-15T00:24:51;8.97;;;4.00;;
62903;SDS011;49000;50.698;13.322;2024-01-15T00:27:17;6.60;;;3.90;;
62903;SDS011;49000;50.698;13.322;2024-01-15T00:29:42;8.23;;;4.33;;
62903;SDS011;49000;50.698;13.322;2024-01-15T00:32:08;8.30;;;4.63;;
62903;SDS011;49000;50.698;13.322;2024-01-15T00:34:33;9.33;;;4.50;;
62903;SDS011;49000;50.698;13.322;2024-01-15T00:36:58;9.60;;;4.53;;
62903;SDS011;49000;50.698;13.322;2024-01-15T00:39:24;9.57;;;4.73;;
62903;SDS011;49000;50.698;13.322;2024-01-15T00:41:50;11.50;;;5.00;;
62903;SDS011;49000;50.698;13.322;2024-01-15T00:44:16;8.40;;;4.73;;
62903;SDS011;49000;50.698;13.322;2024-01-15T00:46:45;10.50;;;4.97;;
62903;SDS011;49000;50.698;13.322;2024-01-15T00:49:12;11.13;;;4.93;;
62903;SDS011;49000;50.698;13.322;2024-01-15T00:51:38;8.80;;;4.60;;
62903;SDS011;49000;50.698;13.322;2024-01-15T00:54:03;9.47;;;4.33;;
62903;SDS011;49000;50.698;13.322;2024-01-15T00:56:29;8.93;;;4.77;;
62903;SDS011;49000;50.698;13.322;2024-01-15T00:58:54;9.10;;;4.43;;
62903;SDS011;49000;50.698;13.322;2024-01-15T01:01:20;9.13;;;4.40;;
62903;SDS011;49000;50.698;13.322;2024-01-15T01:03:45;8.40;;;4.63;;
62903;SDS011;49000;50.698;13.322;2024-01-15T01:06:11;8.60;;;4.80;;
62903;SDS011;49000;50.698;13.322;2024-01-15T01:08:36;10.70;;;4.87;;
62903;SDS011;49000;50.698;13.322;2024-01-15T01:11:02;10.03;;;5.13;;
62903;SDS011;49000;50.698;13.322;2024-01-15T01:13:27;10.80;;;4.53;;
62903;SDS011;49000;50.698;13.322;2024-01-15T01:15:53;12.20;;;5.17;;
62903;SDS011;49000;50.698;13.322;2024-01-15T01:18:18;12.00;;;5.33;;
62903;SDS011;49000;50.698;13.322;2024-01-15T01:20:44;11.33;;;5.13;;
62903;SDS011;49000;50.698;13.322;2024-01-15T01:23:09;13.10;;;5.13;;
62903;SDS011;49000;50.698;13.322;2024-01-15T01:25:35;8.27;;;4.50;;
62903;SDS011;49000;50.698;13.322;2024-01-15T01:28:00;9.43;;;5.00;;
62903;SDS011;49000;50.698;13.322;2024-01-15T01:30:25;10.23;;;5.10;;
62903;SDS011;49000;50.698;13.322;2024-01-15T01:32:51;11.03;;;4.53;;
62903;SDS011;49000;50.698;13.322;2024-01-15T01:35:16;11.63;;;6.03;;
62903;SDS011;49000;50.698;13.322;2024-01-15T01:37:42;9.43;;;5.87;;
62903;SDS011;49000;50.698;13.322;2024-01-15T01:40:07;12.57;;;5.83;;
62903;SDS011;49000;50.698;13.322;2024-01-15T01:42:33;12.70;;;6.50;;
62903;SDS011;49000;50.698;13.322;2024-01-15T01:44:59;13.30;;;6.30;;
62903;SDS011;49000;50.698;13.322;2024-01-15T01:47:24;13.37;;;6.27;;
62903;SDS011;49000;50.698;13.322;2024-01-15T01:49:51;12.87;;;5.97;;
62903;SDS011;49000;50.698;13.322;2024-01-15T01:52:17;11.23;;;5.50;;
62903;SDS011;49000;50.698;13.322;2024-01-15T01:54:43;10.17;;;5.10;;
62903;SDS011;49000;50.698;13.322;2024-01-15T01:57:09;9.90;;;5.17;;
62903;SDS011;49000;50.698;13.322;2024-01-15T01:59:35;12.47;;;5.70;;
62903;SDS011;49000;50.698;13.322;2024-01-15T02:02:02;9.97;;;5.87;;
62903;SDS011;49000;50.698;13.322;2024-01-15T02:04:28;11.77;;;5.93;;
62903;SDS011;49000;50.698;13.322;2024-01-15T02:06:55;14.33;;;6.13;;
62903;SDS011;49000;50.698;13.322;2024-01-15T02:09:21;13.60;;;5.60;;
62903;SDS011;49000;50.698;13.322;2024-01-15T02:11:47;12.40;;;5.30;;
62903;SDS011;49000;50.698;13.322;2024-01-15T02:14:12;11.53;;;6.20;;
62903;SDS011;49000;50.698;13.322;2024-01-15T02:16:38;10.30;;;5.33;;
62903;SDS011;49000;50.698;13.322;2024-01-15T02:19:04;12.60;;;5.40;;
62903;SDS011;49000;50.698;13.322;2024-01-15T02:21:31;10.90;;;6.13;;
62903;SDS011;49000;50.698;13.322;2024-01-15T02:23:57;12.73;;;6.33;;
62903;SDS011;49000;50.698;13.322;2024-01-15T02:26:22;9.60;;;5.10;;
62903;SDS011;49000;50.698;13.322;2024-01-15T02:28:48;15.50;;;6.63;;
62903;SDS011;49000;50.698;13.322;2024-01-15T02:31:15;12.17;;;5.97;;
62903;SDS011;49000;50.698;13.322;2024-01-15T02:33:41;16.63;;;6.50;;
62903;SDS011;49000;50.698;13.322;2024-01-15T02:36:07;12.80;;;5.90;;
62903;SDS011;49000;50.698;13.322;2024-01-15T02:38:33;14.73;;;6.87;;
62903;SDS011;49000;50.698;13.322;2024-01-15T02:40:58;13.47;;;5.87;;
62903;SDS011;49000;50.698;13.322;2024-01-15T02:43:24;11.00;;;5.87;;
62903;SDS011;49000;50.698;13.322;2024-01-15T02:45:49;11.50;;;6.33;;
62903;SDS011;49000;50.698;13.322;2024-01-15T02:48:15;14.77;;;6.47;;
62903;SDS011;49000;50.698;13.322;2024-01-15T02:50:40;13.83;;;5.93;;
62903;SDS011;49000;50.698;13.322;2024-01-15T02:53:06;13.97;;;6.20;;
62903;SDS011;49000;50.698;13.322;2024-01-15T02:55:31;13.60;;;6.67;;
62903;SDS011;49000;50.698;13.322;2024-01-15T02:57:57;13.07;;;6.50;;
62903;SDS011;49000;50.698;13.322;2024-01-15T03:00:22;10.37;;;6.00;;
62903;SDS011;49000;50.698;13.322;2024-01-15T03:02:49;12.43;;;6.47;;
62903;SDS011;49000;50.698;13.322;2024-01-15T03:05:15;12.23;;;6.70;;
62903;SDS011;49000;50.698;13.322;2024-01-15T03:07:41;13.83;;;6.13;;
62903;SDS011;49000;50.698;13.322;2024-01-15T03:10:07;13.17;;;5.80;;
62903;SDS011;49000;50.698;13.322;2024-01-15T03:12:33;11.37;;;6.17;;
62903;SDS011;49000;50.698;13.322;2024-01-15T03:14:58;14.37;;;7.33;;
62903;SDS011;49000;50.698;13.322;2024-01-15T03:17:24;14.47;;;6.10;;
62903;SDS011;49000;50.698;13.322;2024-01-15T03:19:50;13.43;;;6.63;;
62903;SDS011;49000;50.698;13.322;2024-01-15T03:22:16;14.13;;;7.40;;
62903;SDS011;49000;50.698;13.322;2024-01-15T03:24:42;14.77;;;7.47;;
62903;SDS011;49000;50.698;13.322;2024-01-15T03:27:07;14.83;;;7.17;;
62903;SDS011;49000;50.698;13.322;2024-01-15T03:29:33;12.13;;;6.07;;
62903;SDS011;49000;50.698;13.322;2024-01-15T03:31:58;14.37;;;6.73;;
62903;SDS011;49000;50.698;13.322;2024-01-15T03:34:24;13.77;;;6.37;;
62903;SDS011;49000;50.698;13.322;2024-01-15T03:36:49;13.43;;;6.40;;
62903;SDS011;49000;50.698;13.322;2024-01-15T03:39:15;13.70;;;6.60;;
62903;SDS011;49000;50.698;13.322;2024-01-15T03:41:40;18.17;;;7.33;;
62903;SDS011;49000;50.698;13.322;2024-01-15T03:44:06;13.00;;;7.03;;
62903;SDS011;49000;50.698;13.322;2024-01-15T03:46:31;11.97;;;6.50;;
62903;SDS011;49000;50.698;13.322;2024-01-15T03:48:57;13.93;;;7.00;;
62903;SDS011;49000;50.698;13.322;2024-01-15T03:51:22;13.17;;;6.13;;
62903;SDS011;49000;50.698;13.322;2024-01-15T03:53:48;11.23;;;6.30;;
62903;SDS011;49000;50.698;13.322;2024-01-15T03:56:13;14.40;;;6.73;;
62903;SDS011;49000;50.698;13.322;2024-01-15T03:58:39;14.57;;;7.27;;
62903;SDS011;49000;50.698;13.322;2024-01-15T04:01:07;13.97;;;6.53;;
62903;SDS011;49000;50.698;13.322;2024-01-15T04:03:34;14.63;;;6.40;;
62903;SDS011;49000;50.698;13.322;2024-01-15T04:05:59;13.33;;;6.43;;
62903;SDS011;49000;50.698;13.322;2024-01-15T04:08:25;15.00;;;6.73;;
62903;SDS011;49000;50.698;13.322;2024-01-15T04:10:50;15.10;;;6.67;;
62903;SDS011;49000;50.698;13.322;2024-01-15T04:13:16;13.40;;;6.50;;
62903;SDS011;49000;50.698;13.322;2024-01-15T04:15:41;15.50;;;7.33;;
62903;SDS011;49000;50.698;13.322;2024-01-15T04:18:07;16.10;;;7.03;;
62903;SDS011;49000;50.698;13.322;2024-01-15T04:20:32;14.33;;;6.63;;
62903;SDS011;49000;50.698;13.322;2024-01-15T04:22:58;15.53;;;7.00;;
62903;SDS011;49000;50.698;13.322;2024-01-15T04:25:23;19.37;;;7.70;;
62903;SDS011;49000;50.698;13.322;2024-01-15T04:27:49;18.90;;;7.73;;
62903;SDS011;49000;50.698;13.322;2024-01-15T04:30:14;15.73;;;7.43;;
62903;SDS011;49000;50.698;13.322;2024-01-15T04:32:39;17.97;;;7.60;;
62903;SDS011;49000;50.698;13.322;2024-01-15T04:35:05;14.07;;;7.33;;
62903;SDS011;49000;50.698;13.322;2024-01-15T04:37:31;18.30;;;7.87;;
62903;SDS011;49000;50.698;13.322;2024-01-15T04:39:56;16.13;;;7.10;;
62903;SDS011;49000;50.698;13.322;2024-01-15T04:42:22;16.30;;;7.90;;
62903;SDS011;49000;50.698;13.322;2024-01-15T04:44:48;15.97;;;7.30;;
62903;SDS011;49000;50.698;13.322;2024-01-15T04:47:13;18.70;;;7.93;;
62903;SDS011;49000;50.698;13.322;2024-01-15T04:49:39;14.20;;;7.30;;
62903;SDS011;49000;50.698;13.322;2024-01-15T04:52:04;15.33;;;7.23;;
62903;SDS011;49000;50.698;13.322;2024-01-15T04:54:30;14.80;;;6.73;;
62903;SDS011;49000;50.698;13.322;2024-01-15T04:56:55;17.17;;;8.03;;
62903;SDS011;49000;50.698;13.322;2024-01-15T04:59:21;16.07;;;7.00;;
62903;SDS011;49000;50.698;13.322;2024-01-15T05:01:46;14.93;;;6.73;;
62903;SDS011;49000;50.698;13.322;2024-01-15T05:04:12;15.67;;;6.90;;
62903;SDS011;49000;50.698;13.322;2024-01-15T05:06:37;16.73;;;7.47;;
62903;SDS011;49000;50.698;13.322;2024-01-15T05:09:03;13.87;;;7.60;;
62903;SDS011;49000;50.698;13.322;2024-01-15T05:11:29;13.97;;;6.93;;
62903;SDS011;49000;50.698;13.322;2024-01-15T05:13:54;17.63;;;7.07;;
62903;SDS011;49000;50.698;13.322;2024-01-15T05:16:20;18.97;;;7.23;;
62903;SDS011;49000;50.698;13.322;2024-01-15T05:18:45;13.87;;;6.90;;
62903;SDS011;49000;50.698;13.322;2024-01-15T05:21:11;16.57;;;7.43;;
62903;SDS011;49000;50.698;13.322;2024-01-15T05:23:37;13.33;;;6.30;;
62903;SDS011;49000;50.698;13.322;2024-01-15T05:26:02;14.80;;;6.90;;
62903;SDS011;49000;50.698;13.322;2024-01-15T05:28:28;15.60;;;6.57;;
62903;SDS011;49000;50.698;13.322;2024-01-15T05:30:54;15.37;;;6.53;;
62903;SDS011;49000;50.698;13.322;2024-01-15T05:33:20;15.23;;;7.03;;
62903;SDS011;49000;50.698;13.322;2024-01-15T05:35:47;17.23;;;6.97;;
62903;SDS011;49000;50.698;13.322;2024-01-15T05:38:12;14.80;;;7.23;;
62903;SDS011;49000;50.698;13.322;2024-01-15T05:40:38;15.13;;;7.10;;
62903;SDS011;49000;50.698;13.322;2024-01-15T05:43:03;16.47;;;7.43;;
62903;SDS011;49000;50.698;13.322;2024-01-15T05:45:29;15.37;;;7.20;;
62903;SDS011;49000;50.698;13.322;2024-01-15T05:47:55;14.87;;;6.80;;
62903;SDS011;49000;50.698;13.322;2024-01-15T05:50:20;13.37;;;5.43;;
62903;SDS011;49000;50.698;13.322;2024-01-15T05:52:47;15.50;;;6.73;;
62903;SDS011;49000;50.698;13.322;2024-01-15T05:55:12;14.70;;;6.03;;
62903;SDS011;49000;50.698;13.322;2024-01-15T05:57:38;15.17;;;6.00;;
62903;SDS011;49000;50.698;13.322;2024-01-15T06:00:04;15.23;;;6.20;;
62903;SDS011;49000;50.698;13.322;2024-01-15T06:02:30;13.00;;;6.67;;
62903;SDS011;49000;50.698;13.322;2024-01-15T06:04:55;12.63;;;5.93;;
62903;SDS011;49000;50.698;13.322;2024-01-15T06:07:21;11.63;;;5.60;;
62903;SDS011;49000;50.698;13.322;2024-01-15T06:09:47;13.23;;;6.30;;
62903;SDS011;49000;50.698;13.322;2024-01-15T06:12:13;16.77;;;6.93;;
62903;SDS011;49000;50.698;13.322;2024-01-15T06:14:38;14.30;;;6.50;;
62903;SDS011;49000;50.698;13.322;2024-01-15T06:17:04;13.27;;;6.40;;
62903;SDS011;49000;50.698;13.322;2024-01-15T06:19:29;13.20;;;6.60;;
62903;SDS011;49000;50.698;13.322;2024-01-15T06:21:55;15.93;;;7.47;;
62903;SDS011;49000;50.698;13.322;2024-01-15T06:24:20;18.17;;;9.87;;
62903;SDS011;49000;50.698;13.322;2024-01-15T06:26:46;27.27;;;12.27;;
62903;SDS011;49000;50.698;13.322;2024-01-15T06:29:12;15.27;;;6.53;;
62903;SDS011;49000;50.698;13.322;2024-01-15T06:31:37;28.63;;;12.00;;
62903;SDS011;49000;50.698;13.322;2024-01-15T06:34:03;14.77;;;7.07;;
62903;SDS011;49000;50.698;13.322;2024-01-15T06:36:28;12.87;;;6.03;;
62903;SDS011;49000;50.698;13.322;2024-01-15T06:38:54;11.23;;;5.83;;
62903;SDS011;49000;50.698;13.322;2024-01-15T06:41:19;15.77;;;6.93;;
62903;SDS011;49000;50.698;13.322;2024-01-15T06:43:45;14.93;;;5.60;;
62903;SDS011;49000;50.698;13.322;2024-01-15T06:46:10;18.93;;;8.93;;
62903;SDS011;49000;50.698;13.322;2024-01-15T06:48:36;12.87;;;5.87;;
62903;SDS011;49000;50.698;13.322;2024-01-15T06:51:01;13.77;;;6.17;;
62903;SDS011;49000;50.698;13.322;2024-01-15T06:53:27;14.27;;;6.67;;
62903;SDS011;49000;50.698;13.322;2024-01-15T06:55:52;11.50;;;5.53;;
62903;SDS011;49000;50.698;13.322;2024-01-15T06:58:17;14.13;;;5.60;;
62903;SDS011;49000;50.698;13.322;2024-01-15T07:00:43;12.87;;;5.67;;
62903;SDS011;49000;50.698;13.322;2024-01-15T07:03:08;12.63;;;5.27;;
62903;SDS011;49000;50.698;13.322;2024-01-15T07:05:34;10.50;;;5.40;;
62903;SDS011;49000;50.698;13.322;2024-01-15T07:07:59;10.17;;;5.37;;
62903;SDS011;49000;50.698;13.322;2024-01-15T07:10:25;10.80;;;5.33;;
62903;SDS011;49000;50.698;13.322;2024-01-15T07:12:51;11.47;;;4.90;;
62903;SDS011;49000;50.698;13.322;2024-01-15T07:15:16;10.90;;;5.03;;
62903;SDS011;49000;50.698;13.322;2024-01-15T07:17:42;9.77;;;5.37;;
62903;SDS011;49000;50.698;13.322;2024-01-15T07:20:07;10.07;;;4.70;;
62903;SDS011;49000;50.698;13.322;2024-01-15T07:22:35;9.80;;;4.70;;
62903;SDS011;49000;50.698;13.322;2024-01-15T07:25:00;10.10;;;5.20;;
62903;SDS011;49000;50.698;13.322;2024-01-15T07:27:26;16.77;;;5.30;;
62903;SDS011;49000;50.698;13.322;2024-01-15T07:29:51;12.00;;;4.70;;
62903;SDS011;49000;50.698;13.322;2024-01-15T07:32:17;11.27;;;5.17;;
62903;SDS011;49000;50.698;13.322;2024-01-15T07:34:43;11.53;;;5.27;;
62903;SDS011;49000;50.698;13.322;2024-01-15T07:37:08;10.83;;;5.00;;
62903;SDS011;49000;50.698;13.322;2024-01-15T07:39:34;13.10;;;5.53;;
62903;SDS011;49000;50.698;13.322;2024-01-15T07:41:59;9.23;;;4.70;;
62903;SDS011;49000;50.698;13.322;2024-01-15T07:44:25;9.20;;;4.33;;
62903;SDS011;49000;50.698;13.322;2024-01-15T07:46:51;10.47;;;4.83;;
62903;SDS011;49000;50.698;13.322;2024-01-15T07:49:16;9.70;;;4.40;;
62903;SDS011;49000;50.698;13.322;2024-01-15T07:51:42;11.30;;;4.73;;
62903;SDS011;49000;50.698;13.322;2024-01-15T07:54:08;9.50;;;4.70;;
62903;SDS011;49000;50.698;13.322;2024-01-15T07:56:34;11.13;;;4.90;;
62903;SDS011;49000;50.698;13.322;2024-01-15T07:59:17;11.63;;;5.63;;
62903;SDS011;49000;50.698;13.322;2024-01-15T08:01:43;13.23;;;4.90;;
62903;SDS011;49000;50.698;13.322;2024-01-15T08:04:08;8.20;;;4.50;;
62903;SDS011;49000;50.698;13.322;2024-01-15T08:06:37;11.23;;;4.47;;
62903;SDS011;49000;50.698;13.322;2024-01-15T08:09:03;9.60;;;5.07;;
62903;SDS011;49000;50.698;13.322;2024-01-15T08:11:29;9.37;;;4.43;;
62903;SDS011;49000;50.698;13.322;2024-01-15T08:13:55;9.20;;;4.57;;
62903;SDS011;49000;50.698;13.322;2024-01-15T08:16:20;10.30;;;4.30;;
62903;SDS011;49000;50.698;13.322;2024-01-15T08:18:46;9.67;;;4.13;;
62903;SDS011;49000;50.698;13.322;2024-01-15T08:21:12;8.37;;;4.20;;
62903;SDS011;49000;50.698;13.322;2024-01-15T08:23:38;9.23;;;4.40;;
62903;SDS011;49000;50.698;13.322;2024-01-15T08:26:04;8.10;;;3.87;;
62903;SDS011;49000;50.698;13.322;2024-01-15T08:28:29;8.50;;;4.50;;
62903;SDS011;49000;50.698;13.322;2024-01-15T08:30:55;8.20;;;3.63;;
62903;SDS011;49000;50.698;13.322;2024-01-15T08:33:21;11.20;;;4.67;;
62903;SDS011;49000;50.698;13.322;2024-01-15T08:35:46;9.63;;;3.47;;
62903;SDS011;49000;50.698;13.322;2024-01-15T08:38:12;9.53;;;4.70;;
62903;SDS011;49000;50.698;13.322;2024-01-15T08:40:37;9.90;;;3.97;;
62903;SDS011;49000;50.698;13.322;2024-01-15T08:43:03;8.77;;;4.03;;
62903;SDS011;49000;50.698;13.322;2024-01-15T08:45:28;9.33;;;4.03;;
62903;SDS011;49000;50.698;13.322;2024-01-15T08:47:54;8.43;;;3.83;;
62903;SDS011;49000;50.698;13.322;2024-01-15T08:50:19;9.63;;;4.40;;
62903;SDS011;49000;50.698;13.322;2024-01-15T08:52:45;6.07;;;3.63;;
62903;SDS011;49000;50.698;13.322;2024-01-15T08:55:11;8.70;;;3.77;;
62903;SDS011;49000;50.698;13.322;2024-01-15T08:57:38;11.27;;;4.20;;
62903;SDS011;49000;50.698;13.322;2024-01-15T09:00:03;9.97;;;4.23;;
62903;SDS011;49000;50.698;13.322;2024-01-15T09:02:33;9.17;;;4.27;;
62903;SDS011;49000;50.698;13.322;2024-01-15T09:04:59;8.20;;;4.33;;
62903;SDS011;49000;50.698;13.322;2024-01-15T09:07:24;8.00;;;3.97;;
62903;SDS011;49000;50.698;13.322;2024-01-15T09:09:51;10.17;;;3.97;;
62903;SDS011;49000;50.698;13.322;2024-01-15T09:12:16;8.23;;;4.07;;
62903;SDS011;49000;50.698;13.322;2024-01-15T09:14:43;9.67;;;3.97;;
62903;SDS011;49000;50.698;13.322;2024-01-15T09:17:09;9.43;;;4.07;;
62903;SDS011;49000;50.698;13.322;2024-01-15T09:19:34;10.97;;;4.30;;
62903;SDS011;49000;50.698;13.322;2024-01-15T09:22:00;10.13;;;4.53;;
62903;SDS011;49000;50.698;13.322;2024-01-15T09:24:25;9.17;;;4.03;;
62903;SDS011;49000;50.698;13.322;2024-01-15T09:26:51;8.87;;;3.70;;
62903;SDS011;49000;50.698;13.322;2024-01-15T09:29:16;10.10;;;4.17;;
62903;SDS011;49000;50.698;13.322;2024-01-15T09:31:43;7.40;;;4.03;;
62903;SDS011;49000;50.698;13.322;2024-01-15T09:34:08;9.30;;;4.37;;
62903;SDS011;49000;50.698;13.322;2024-01-15T09:36:38;9.10;;;4.17;;
62903;SDS011;49000;50.698;13.322;2024-01-15T09:39:06;6.47;;;3.70;;
62903;SDS011;49000;50.698;13.322;2024-01-15T09:41:33;10.47;;;3.60;;
62903;SDS011;49000;50.698;13.322;2024-01-15T09:44:05;10.17;;;4.17;;
62903;SDS011;49000;50.698;13.322;2024-01-15T09:46:32;8.60;;;3.67;;
62903;SDS011;49000;50.698;13.322;2024-01-15T09:48:59;6.97;;;3.40;;
62903;SDS011;49000;50.698;13.322;2024-01-15T09:51:26;8.03;;;3.53;;
62903;SDS011;49000;50.698;13.322;2024-01-15T09:53:55;8.20;;;3.70;;
62903;SDS011;49000;50.698;13.322;2024-01-15T09:56:22;6.50;;;3.50;;
62903;SDS011;49000;50.698;13.322;2024-01-15T09:58:48;7.27;;;3.63;;
62903;SDS011;49000;50.698;13.322;2024-01-15T10:01:16;9.27;;;3.80;;
62903;SDS011;49000;50.698;13.322;2024-01-15T10:03:42;8.97;;;3.50;;
62903;SDS011;49000;50.698;13.322;2024-01-15T10:06:07;9.70;;;3.53;;
62903;SDS011;49000;50.698;13.322;2024-01-15T10:08:34;4.97;;;3.13;;
62903;SDS011;49000;50.698;13.322;2024-01-15T10:11:01;9.53;;;4.00;;
62903;SDS011;49000;50.698;13.322;2024-01-15T10:13:29;7.20;;;3.27;;
62903;SDS011;49000;50.698;13.322;2024-01-15T10:15:55;8.93;;;3.10;;
62903;SDS011;49000;50.698;13.322;2024-01-15T10:18:20;7.30;;;3.63;;
62903;SDS011;49000;50.698;13.322;2024-01-15T10:20:46;5.70;;;3.20;;
62903;SDS011;49000;50.698;13.322;2024-01-15T10:23:13;7.53;;;3.00;;
62903;SDS011;49000;50.698;13.322;2024-01-15T10:25:41;4.97;;;3.10;;
62903;SDS011;49000;50.698;13.322;2024-01-15T10:28:07;6.77;;;3.37;;
62903;SDS011;49000;50.698;13.322;2024-01-15T10:30:33;7.10;;;3.73;;
62903;SDS011;49000;50.698;13.322;2024-01-15T10:33:02;7.37;;;2.90;;
62903;SDS011;49000;50.698;13.322;2024-01-15T10:35:29;7.73;;;3.10;;
62903;SDS011;49000;50.698;13.322;2024-01-15T10:37:55;4.60;;;2.47;;
62903;SDS011;49000;50.698;13.322;2024-01-15T10:40:21;6.17;;;3.03;;
62903;SDS011;49000;50.698;13.322;2024-01-15T10:42:46;4.87;;;2.70;;
62903;SDS011;49000;50.698;13.322;2024-01-15T10:45:12;6.50;;;2.80;;
62903;SDS011;49000;50.698;13.322;2024-01-15T10:47:38;5.83;;;2.97;;
62903;SDS011;49000;50.698;13.322;2024-01-15T10:50:04;8.07;;;2.70;;
62903;SDS011;49000;50.698;13.322;2024-01-15T10:52:32;5.17;;;3.17;;
62903;SDS011;49000;50.698;13.322;2024-01-15T10:54:59;6.40;;;2.70;;
62903;SDS011;49000;50.698;13.322;2024-01-15T10:57:26;7.20;;;3.13;;
62903;SDS011;49000;50.698;13.322;2024-01-15T10:59:52;7.40;;;3.03;;
62903;SDS011;49000;50.698;13.322;2024-01-15T11:02:17;6.60;;;2.70;;
62903;SDS011;49000;50.698;13.322;2024-01-15T11:04:43;5.07;;;2.53;;
62903;SDS011;49000;50.698;13.322;2024-01-15T11:07:09;6.30;;;2.90;;
62903;SDS011;49000;50.698;13.322;2024-01-15T11:09:36;7.47;;;2.90;;
62903;SDS011;49000;50.698;13.322;2024-01-15T11:12:12;5.93;;;2.93;;
62903;SDS011;49000;50.698;13.322;2024-01-15T11:14:48;6.73;;;3.03;;
62903;SDS011;49000;50.698;13.322;2024-01-15T11:17:15;5.37;;;2.77;;
62903;SDS011;49000;50.698;13.322;2024-01-15T11:24:55;6.60;;;2.90;;
62903;SDS011;49000;50.698;13.322;2024-01-15T11:27:40;5.17;;;2.57;;
62903;SDS011;49000;50.698;13.322;2024-01-15T11:30:11;6.83;;;3.27;;
62903;SDS011;49000;50.698;13.322;2024-01-15T11:32:37;7.43;;;2.90;;
62903;SDS011;49000;50.698;13.322;2024-01-15T11:35:06;7.73;;;3.27;;
62903;SDS011;49000;50.698;13.322;2024-01-15T11:40:22;7.13;;;2.70;;
62903;SDS011;49000;50.698;13.322;2024-01-15T11:43:02;5.63;;;2.90;;
62903;SDS011;49000;50.698;13.322;2024-01-15T11:45:28;7.13;;;3.00;;
62903;SDS011;49000;50.698;13.322;2024-01-15T11:50:47;6.47;;;3.47;;
62903;SDS011;49000;50.698;13.322;2024-01-15T11:53:17;7.80;;;3.47;;
62903;SDS011;49000;50.698;13.322;2024-01-15T11:55:51;6.23;;;3.07;;
62903;SDS011;49000;50.698;13.322;2024-01-15T11:58:17;5.97;;;2.67;;
62903;SDS011;49000;50.698;13.322;2024-01-15T12:00:43;6.93;;;3.00;;
62903;SDS011;49000;50.698;13.322;2024-01-15T12:03:10;5.90;;;3.33;;
62903;SDS011;49000;50.698;13.322;2024-01-15T12:05:36;7.77;;;3.40;;
62903;SDS011;49000;50.698;13.322;2024-01-15T12:08:03;8.23;;;2.97;;
62903;SDS011;49000;50.698;13.322;2024-01-15T12:10:35;5.30;;;2.77;;
62903;SDS011;49000;50.698;13.322;2024-01-15T12:13:11;5.33;;;2.97;;
62903;SDS011;49000;50.698;13.322;2024-01-15T12:15:38;7.00;;;3.13;;
62903;SDS011;49000;50.698;13.322;2024-01-15T12:18:08;5.97;;;2.87;;
62903;SDS011;49000;50.698;13.322;2024-01-15T12:20:34;7.17;;;3.53;;
62903;SDS011;49000;50.698;13.322;2024-01-15T12:23:00;4.93;;;2.67;;
62903;SDS011;49000;50.698;13.322;2024-01-15T12:25:28;6.67;;;3.07;;
62903;SDS011;49000;50.698;13.322;2024-01-15T12:27:55;7.80;;;3.10;;
62903;SDS011;49000;50.698;13.322;2024-01-15T12:30:21;6.67;;;3.07;;
62903;SDS011;49000;50.698;13.322;2024-01-15T12:32:46;7.57;;;3.40;;
62903;SDS011;49000;50.698;13.322;2024-01-15T12:35:12;6.80;;;3.27;;
62903;SDS011;49000;50.698;13.322;2024-01-15T12:37:38;6.07;;;3.13;;
62903;SDS011;49000;50.698;13.322;2024-01-15T12:40:06;7.77;;;3.10;;
62903;SDS011;49000;50.698;13.322;2024-01-15T12:42:32;6.47;;;3.20;;
62903;SDS011;49000;50.698;13.322;2024-01-15T12:44:59;8.43;;;3.63;;
62903;SDS011;49000;50.698;13.322;2024-01-15T12:47:25;5.73;;;3.30;;
62903;SDS011;49000;50.698;13.322;2024-01-15T12:49:54;6.43;;;3.30;;
62903;SDS011;49000;50.698;13.322;2024-01-15T12:52:20;7.00;;;3.60;;
62903;SDS011;49000;50.698;13.322;2024-01-15T12:54:49;7.13;;;3.70;;
62903;SDS011;49000;50.698;13.322;2024-01-15T12:57:15;6.67;;;3.57;;
62903;SDS011;49000;50.698;13.322;2024-01-15T12:59:41;7.00;;;3.43;;
62903;SDS011;49000;50.698;13.322;2024-01-15T13:02:07;6.17;;;3.57;;
62903;SDS011;49000;50.698;13.322;2024-01-15T13:04:33;8.53;;;3.60;;
62903;SDS011;49000;50.698;13.322;2024-01-15T13:06:58;7.43;;;3.27;;
62903;SDS011;49000;50.698;13.322;2024-01-15T13:09:23;5.80;;;3.53;;
62903;SDS011;49000;50.698;13.322;2024-01-15T13:11:49;6.80;;;3.43;;
62903;SDS011;49000;50.698;13.322;2024-01-15T13:14:16;7.47;;;3.50;;
62903;SDS011;49000;50.698;13.322;2024-01-15T13:16:41;5.37;;;3.00;;
62903;SDS011;49000;50.698;13.322;2024-01-15T13:19:07;7.27;;;3.03;;
62903;SDS011;49000;50.698;13.322;2024-01-15T13:21:34;6.17;;;3.43;;
62903;SDS011;49000;50.698;13.322;2024-01-15T13:23:59;6.47;;;3.13;;
62903;SDS011;49000;50.698;13.322;2024-01-15T13:26:25;6.30;;;3.27;;
62903;SDS011;49000;50.698;13.322;2024-01-15T13:28:50;5.73;;;3.33;;
62903;SDS011;49000;50.698;13.322;2024-01-15T13:31:16;8.57;;;3.60;;
62903;SDS011;49000;50.698;13.322;2024-01-15T13:33:41;5.60;;;2.97;;
62903;SDS011;49000;50.698;13.322;2024-01-15T13:36:07;7.87;;;3.73;;
62903;SDS011;49000;50.698;13.322;2024-01-15T13:38:35;6.80;;;3.57;;
62903;SDS011;49000;50.698;13.322;2024-01-15T13:41:04;6.27;;;3.23;;
62903;SDS011;49000;50.698;13.322;2024-01-15T13:43:31;5.50;;;2.87;;
62903;SDS011;49000;50.698;13.322;2024-01-15T13:45:56;10.60;;;3.30;;
62903;SDS011;49000;50.698;13.322;2024-01-15T13:48:22;7.30;;;3.50;;
62903;SDS011;49000;50.698;13.322;2024-01-15T13:50:47;7.90;;;2.93;;
62903;SDS011;49000;50.698;13.322;2024-01-15T13:53:13;8.47;;;3.40;;
62903;SDS011;49000;50.698;13.322;2024-01-15T13:55:38;6.90;;;3.10;;
62903;SDS011;49000;50.698;13.322;2024-01-15T13:58:05;7.40;;;3.07;;
62903;SDS011;49000;50.698;13.322;2024-01-15T14:00:31;6.03;;;3.47;;
62903;SDS011;49000;50.698;13.322;2024-01-15T14:02:57;4.80;;;2.87;;
62903;SDS011;49000;50.698;13.322;2024-01-15T14:05:22;7.13;;;3.57;;
62903;SDS011;49000;50.698;13.322;2024-01-15T14:07:48;9.00;;;3.43;;
62903;SDS011;49000;50.698;13.322;2024-01-15T14:10:14;6.63;;;3.23;;
62903;SDS011;49000;50.698;13.322;2024-01-15T14:12:39;6.73;;;3.57;;
62903;SDS011;49000;50.698;13.322;2024-01-15T14:15:06;5.97;;;3.17;;
62903;SDS011;49000;50.698;13.322;2024-01-15T14:17:31;6.30;;;3.00;;
62903;SDS011;49000;50.698;13.322;2024-01-15T14:19:57;6.27;;;3.50;;
62903;SDS011;49000;50.698;13.322;2024-01-15T14:22:23;7.47;;;3.60;;
62903;SDS011;49000;50.698;13.322;2024-01-15T14:24:48;7.23;;;3.07;;
62903;SDS011;49000;50.698;13.322;2024-01-15T14:27:14;6.77;;;3.40;;
62903;SDS011;49000;50.698;13.322;2024-01-15T14:29:39;10.20;;;3.17;;
62903;SDS011;49000;50.698;13.322;2024-01-15T14:32:05;7.73;;;3.37;;